Nearby METAR Reports

 

KBED - Bedford, Massachusetts, USA
Distance from station: W 5mi, 9km
Updated: Tue, 18-Dec-2018 4:56am EST
Overcast
Overcast
 Wind from WNW
Wind: WNW 29 mph , 46 km/h, Gust: 39 mph , 63 km/h
Temperature: 25°F , -4°C
Wind Chill: 8°F , -13°C
Dew Point: 9°F , -13°C
Humidity: 50%
Barometer: 1006.1 hPa
Clouds: Overcast
Visibility: 10 miles , 16 km
Cloud details: Mostly cloudy 4600 ft
Overcast 6000 ft
2018/12/18 09:56 KBED 180956Z AUTO 30025G34KT 10SM BKN046 OVC060 M04/M13 A2971 RMK AO2 PK WND 29034/0905 SLP075 T10441133
KBOS - Boston, Massachusetts, USA
Distance from station: SE 11mi, 18km
Updated: Tue, 18-Dec-2018 4:54am EST
Overcast
Overcast
 Wind from WNW
Wind: WNW 30 mph , 48 km/h, Gust: 41 mph , 67 km/h
Temperature: 27°F , -3°C
Wind Chill: 11°F , -12°C
Dew Point: 9°F , -13°C
Humidity: 46%
Barometer: 1005.1 hPa
Clouds: Overcast
Visibility: 10 miles , 16 km
Cloud details: Partly cloudy 6000 ft
Overcast 8000 ft
2018/12/18 09:54 KBOS 180954Z 30026G36KT 10SM SCT060 OVC080 M03/M13 A2968 RMK AO2 PK WND 29039/0857 SLP049 T10331128
 
KBVY - Beverly, Massachusetts, USA
Distance from station: ENE 17mi, 27km
Updated: Tue, 18-Dec-2018 4:53am EST
Mostly cloudy
Mostly cloudy
 Wind from NW
Wind: NW 20 mph , 31 km/h, Gust: 38 mph , 61 km/h
Temperature: 25°F , -4°C
Wind Chill: 11°F , -12°C
Dew Point: 9°F , -13°C
Humidity: 50%
Barometer: 1004.7 hPa
Clouds: Mostly cloudy
Visibility: 10 miles , 16 km
Cloud details: Few Clouds 4000 ft
Partly cloudy 7500 ft
Mostly cloudy 9500 ft
2018/12/18 09:53 KBVY 180953Z AUTO 31017G33KT 10SM FEW040 SCT075 BKN095 M04/M13 A2967 RMK AO2 PK WND 31039/0901 SLP043 T10391133
KMQE - East Milton, Massachusetts, USA
Distance from station: SSE 17mi, 28km
Updated: Tue, 18-Dec-2018 4:56am EST

 Wind from NW
Wind: NW 32 mph , 52 km/h, Gust: 47 mph , 76 km/h
Temperature: 21°F , -6°C
Wind Chill: 2°F , -17°C
Dew Point: 10°F , -12°C
Humidity: 63%
Barometer: 1003 hPa
2018/12/18 09:56 KMQE 180956Z AUTO 31028G41KT M06/M12 A2962 RMK AO1 PK WND 31044/0923 SLP049 T10611122
 
KLWM - Lawrence, Massachusetts, USA
Distance from station: N 18mi, 29km
Updated: Tue, 18-Dec-2018 4:54am EST
Mostly cloudy
Mostly cloudy
 Wind from NW
Wind: NW 18 mph , 30 km/h, Gust: 35 mph , 56 km/h
Temperature: 27°F , -3°C
Wind Chill: 14°F , -10°C
Dew Point: 9°F , -13°C
Humidity: 46%
Barometer: 1006.1 hPa
Clouds: Mostly cloudy
Visibility: 10 miles , 16 km
Cloud details: Mostly cloudy 4200 ft
2018/12/18 09:54 KLWM 180954Z AUTO 31016G30KT 10SM BKN042 M03/M13 A2971 RMK AO2 PK WND 30033/0900 SLP061 T10331133
KOWD - Norwood, Massachusetts, USA
Distance from station: S 19mi, 31km
Updated: Tue, 18-Dec-2018 4:53am EST
Light snow, Overcast
Light snow, Overcast
 Wind from WNW
Wind: WNW 24 mph , 39 km/h, Gust: 40 mph , 65 km/h
Temperature: 27°F , -3°C
Wind Chill: 12°F , -11°C
Dew Point: 9°F , -13°C
Humidity: 46%
Barometer: 1006.1 hPa
Summary: Light Snow
Clouds: Overcast
Visibility: 9 miles , 14 km
Cloud details: Few Clouds 5500 ft
Overcast 8500 ft
2018/12/18 09:53 KOWD 180953Z AUTO 30021G35KT 9SM -SN FEW055 OVC085 M03/M13 A2971 RMK AO2 PK WND 32037/0935 SLP061 P0000 T10281128
 
KASH - Nashua/Boire Fld, New Hampshire, USA
Distance from station: NW 28mi, 45km
Updated: Tue, 18-Dec-2018 4:56am EST
Overcast
Overcast
 Wind from NW
Wind: NW 24 mph , 39 km/h, Gust: 39 mph , 63 km/h
Temperature: 23°F , -5°C
Wind Chill: 7°F , -14°C
Dew Point: 10°F , -12°C
Humidity: 58%
Barometer: 1006.8 hPa
Clouds: Overcast
Visibility: 10 miles , 16 km
Cloud details: Mostly cloudy 4400 ft
Mostly cloudy 6000 ft
Overcast 7000 ft
2018/12/18 09:56 KASH 180956Z 32021G34KT 10SM BKN044 BKN060 OVC070 M05/M12 A2973 RMK AO2 PK WND 30035/0914 SLP077 T10501122 $
KFIT - Fitchburg, Massachusetts, USA
Distance from station: WNW 29mi, 47km
Updated: Tue, 18-Dec-2018 5:52am EST
Overcast
Overcast
 Wind from NW
Wind: NW 15 mph , 24 km/h, Gust: 33 mph , 54 km/h
Temperature: 21°F , -6°C
Wind Chill: 7°F , -14°C
Dew Point: 9°F , -13°C
Humidity: 58%
Barometer: 1008.1 hPa
Clouds: Overcast
Visibility: 10 miles , 16 km
Cloud details: Overcast 4500 ft
2018/12/18 10:52 KFIT 181052Z AUTO 31013G29KT 10SM OVC045 M06/M13 A2977 RMK AO2 PK WND 33037/0956 SLP086 T10561133
 
KMHT - Manchester, New Hampshire, USA
Distance from station: NNW 35mi, 56km
Updated: Tue, 18-Dec-2018 4:53am EST
Overcast
Overcast
 Wind from NW
Wind: NW 21 mph , 33 km/h, Gust: 32 mph , 52 km/h
Temperature: 23°F , -5°C
Wind Chill: 8°F , -13°C
Dew Point: 7°F , -14°C
Humidity: 50%
Barometer: 1005.4 hPa
Clouds: Overcast
Visibility: 10 miles , 16 km
Cloud details: Few Clouds 4000 ft
Mostly cloudy 10000 ft
Overcast 12000 ft
2018/12/18 09:53 KMHT 180953Z 32018G28KT 10SM FEW040 BKN100 OVC120 M05/M14 A2969 RMK AO2 PK WND 32039/0904 SLP071 T10501139
KGHG - Marshfield, Massachusetts, USA
Distance from station: SE 37mi, 59km
Updated: Tue, 18-Dec-2018 5:35am EST
Clear
Clear
 Wind from WNW
Wind: WNW 17 mph , 28 km/h, Gust: 25 mph , 41 km/h
Temperature: 27°F , -3°C
Wind Chill: 14°F , -10°C
Dew Point: 10°F , -12°C
Humidity: 50%
Barometer: 1005.1 hPa
Clouds: Clear
Visibility: 10 miles , 16 km
2018/12/18 10:35 KGHG 181035Z AUTO 30015G22KT 10SM CLR M03/M12 A2968 RMK AO2
 
KORH - Worcester, Massachusetts, USA
Distance from station: WSW 37mi, 59km
Updated: Tue, 18-Dec-2018 4:54am EST
Mostly cloudy
Mostly cloudy
 Wind from WNW
Wind: WNW 30 mph , 48 km/h, Gust: 40 mph , 65 km/h
Temperature: 19°F , -7°C
Wind Chill: -0°F , -18°C
Dew Point: 9°F , -13°C
Humidity: 63%
Barometer: 1004.4 hPa
Clouds: Mostly cloudy
Visibility: 10 miles , 16 km
Cloud details: Mostly cloudy 3300 ft
Mostly cloudy 4000 ft
2018/12/18 09:54 KORH 180954Z AUTO 29026G35KT 10SM BKN033 BKN040 M07/M13 A2966 RMK AO2 PK WND 28035/0952 UPB37E43SNE37B43E44 SLP058 P0000 T10671128
KSFZ - Pawtucket, Rhode Island, USA
Distance from station: SSW 41mi, 65km
Updated: Tue, 18-Dec-2018 4:56am EST
Overcast
Overcast
 Wind from NNW
Wind: NNW 15 mph , 24 km/h, Gust: 29 mph , 46 km/h
Temperature: 25°F , -4°C
Wind Chill: 13°F , -11°C
Dew Point: 12°F , -11°C
Humidity: 59%
Barometer: 1005.4 hPa
Clouds: Overcast
Visibility: 10 miles , 16 km
Cloud details: Overcast 4300 ft
2018/12/18 09:56 KSFZ 180956Z AUTO 33013G25KT 10SM OVC043 M04/M11 A2969 RMK AO2 SNB29E38 SLP003 P0000 T10391106 FZRANO
 
KTAN - Taunton, Massachusetts, USA
Distance from station: SSE 41mi, 66km
Updated: Tue, 18-Dec-2018 4:52am EST
Overcast
Overcast
 Wind from NW
Wind: NW 16 mph , 26 km/h, Gust: 36 mph , 57 km/h
Temperature: 28°F , -2°C
Wind Chill: 16°F , -9°C
Dew Point: 9°F , -13°C
Humidity: 43%
Barometer: 1005.1 hPa
Clouds: Overcast
Visibility: 10 miles , 16 km
Cloud details: Overcast 7500 ft
2018/12/18 09:52 KTAN 180952Z AUTO 32014G31KT 10SM OVC075 M02/M13 A2968 RMK AO2 PK WND 33035/0921 SLP049 T10221133
KPYM - Plymouth, Massachusetts, USA
Distance from station: SSE 44mi, 71km
Updated: Tue, 18-Dec-2018 5:52am EST
Clear
Clear
 Wind from NW
Wind: NW 22 mph , 35 km/h, Gust: 43 mph , 69 km/h
Temperature: 25°F , -4°C
Wind Chill: 10°F , -12°C
Dew Point: 9°F , -13°C
Humidity: 50%
Barometer: 1005.4 hPa
Clouds: Clear
Visibility: 10 miles , 16 km
2018/12/18 10:52 KPYM 181052Z AUTO 31019G37KT 10SM CLR M04/M13 A2969 RMK AO2 PK WND 33038/1034 SLP055 T10391133
 
KPSM - Portsmouth/Pease, New Hampshire, USA
Distance from station: NNE 46mi, 74km
Updated: Tue, 18-Dec-2018 4:56am EST
Mostly cloudy
Mostly cloudy
 Wind from WNW
Wind: WNW 20 mph , 31 km/h, Gust: 35 mph , 56 km/h
Temperature: 25°F , -4°C
Wind Chill: 11°F , -12°C
Dew Point: 7°F , -14°C
Humidity: 46%
Barometer: 1003.4 hPa
Clouds: Mostly cloudy
Visibility: 10 miles , 16 km
Cloud details: Mostly cloudy 7500 ft
2018/12/18 09:56 KPSM 180956Z 29017G30KT 10SM BKN075 M04/M14 A2963 RMK AO2A PK WND 31037/06 SLP037 T10451139
KAFN - Jaffrey, New Hampshire, USA
Distance from station: WNW 47mi, 76km
Updated: Tue, 18-Dec-2018 5:52am EST
Overcast
Overcast
 Wind from NNW
Wind: NNW 12 mph , 19 km/h, Gust: 22 mph , 35 km/h
Temperature: 19°F , -7°C
Wind Chill: 6°F , -14°C
Dew Point: 9°F , -13°C
Humidity: 63%
Barometer: 1007.1 hPa
Clouds: Overcast
Visibility: 10 miles , 16 km
Cloud details: Overcast 3700 ft
2018/12/18 10:52 KAFN 181052Z AUTO 33010G19KT 280V040 10SM OVC037 M07/M13 A2974 RMK AO2 SLP088 T10671128